createdAt,value
2023-06-17T00:01:40.072Z,12.2
2023-06-17T00:17:22.809Z,11.5
2023-06-17T00:33:05.662Z,12.8
2023-06-17T00:48:48.276Z,13.1
2023-06-17T01:04:31.163Z,13.3
2023-06-17T01:20:13.452Z,15.9
2023-06-17T01:35:55.846Z,15.9
2023-06-17T01:51:38.374Z,14.2
2023-06-17T02:07:20.508Z,14.8
2023-06-17T02:23:03.071Z,15.7
2023-06-17T02:38:45.407Z,18
2023-06-17T02:54:28.258Z,18.1
2023-06-17T03:10:10.479Z,18.79
2023-06-17T03:25:53.230Z,18
2023-06-17T03:41:36.235Z,17.29
2023-06-17T03:57:18.499Z,15.5
2023-06-17T04:13:00.891Z,15.5
2023-06-17T04:28:43.898Z,13.8
2023-06-17T04:44:25.994Z,12.6
2023-06-17T05:00:08.168Z,11.3
2023-06-17T05:15:51.062Z,13.5
2023-06-17T05:31:33.912Z,13.1
2023-06-17T05:47:16.506Z,13.1
2023-06-17T06:02:58.992Z,10.8
2023-06-17T06:18:41.668Z,12.1
2023-06-17T06:34:24.489Z,10.3
2023-06-17T06:50:07.217Z,9.39
2023-06-17T07:05:49.890Z,10.7
2023-06-17T07:21:32.549Z,11.1
2023-06-17T07:37:15.372Z,11.9
2023-06-17T07:52:57.728Z,13
2023-06-17T08:08:39.993Z,12.8
2023-06-17T08:55:47.685Z,10.3
2023-06-17T09:11:30.057Z,10.1
2023-06-17T09:27:12.109Z,8.6
2023-06-17T09:42:54.645Z,8.8
2023-06-17T09:58:36.855Z,10
2023-06-17T10:14:19.037Z,7
2023-06-17T10:30:01.591Z,7.8
2023-06-17T10:45:44.022Z,8.2
2023-06-17T11:01:26.544Z,8.5
2023-06-17T11:17:08.630Z,6.7
2023-06-17T11:32:50.886Z,6.1
2023-06-17T11:48:33.407Z,5.1
2023-06-17T12:04:15.689Z,5.7
2023-06-17T12:19:58.599Z,5
2023-06-17T12:35:40.943Z,7.5
2023-06-17T12:51:23.005Z,6
2023-06-17T13:07:05.517Z,5.4
2023-06-17T13:22:47.624Z,5.9
2023-06-17T13:38:30.031Z,5.6
2023-06-17T13:54:12.701Z,5.5
2023-06-17T14:09:54.904Z,3.9
2023-06-17T14:25:37.363Z,4.5
2023-06-17T14:41:19.918Z,5.1
2023-06-17T14:57:02.823Z,3.9
2023-06-17T15:12:44.980Z,3.5
2023-06-17T15:28:27.288Z,3.6
2023-06-17T15:44:10.047Z,2.7
2023-06-17T15:59:52.216Z,2.8
2023-06-17T16:15:34.690Z,2.9
2023-06-17T16:31:17.194Z,2.9
2023-06-17T16:46:59.408Z,3.3
2023-06-17T17:02:41.502Z,3.3
2023-06-17T17:18:23.754Z,2.8
2023-06-17T17:34:06.003Z,2.8
2023-06-17T17:49:48.722Z,2.7
2023-06-17T18:05:30.844Z,3.5
2023-06-17T18:21:13.038Z,3.9
2023-06-17T18:36:55.035Z,5.1
2023-06-17T18:52:37.104Z,4.9
2023-06-17T18:53:24.346Z,5.4
2023-06-17T19:09:06.627Z,6.9
2023-06-17T19:24:49.571Z,6.9
2023-06-17T19:40:32.097Z,7.7
2023-06-17T19:56:14.260Z,10.2
2023-06-17T20:11:56.695Z,13.2
2023-06-17T20:27:39.475Z,16.6
2023-06-17T20:43:22.287Z,18
2023-06-17T20:59:04.967Z,28.1
2023-06-17T21:14:47.372Z,21.9
2023-06-17T21:30:29.826Z,20.1
2023-06-17T21:46:12.323Z,20.4
2023-06-17T22:01:55.124Z,19.79
2023-06-17T22:17:37.543Z,19.9
2023-06-17T22:33:20.321Z,20.6
2023-06-17T22:49:02.534Z,20.7
2023-06-17T23:04:44.812Z,22
2023-06-17T23:20:27.203Z,24.1
2023-06-17T23:36:09.794Z,23.6
2023-06-17T23:51:51.949Z,22.9
